Time;durP1;ratioP1;P1;durP2;ratioP2;P2;SDS_P1;SDS_P2;PMS_P1;PMS_P2;Temp;Humidity;BMP_temperature;BMP_pressure;BME280_temperature;BME280_humidity;BME280_pressure;Samples;Min_cycle;Max_cycle;Signal;HPM_P1;HPM_P2
2022/01/28 00:04:37;;;;;;;7.00;4.10;;;;;;;3.21;86.08;98881.39;207901;1316;140185;-70
2022/01/28 00:09:41;;;;;;;4.40;3.30;;;;;;;3.22;86.06;98891.53;208169;1318;140575;-73
2022/01/28 00:40:19;;;;;;;6.00;4.40;;;;;;;3.36;85.34;98845.55;209448;1318;150616;-74
2022/01/28 00:45:25;;;;;;;7.10;4.00;;;;;;;3.38;85.34;98846.39;209240;1317;139175;-74
2022/01/28 00:50:28;;;;;;;4.20;3.10;;;;;;;3.41;85.09;98842.32;208206;1317;138551;-74
2022/01/28 00:55:30;;;;;;;5.00;3.40;;;;;;;3.42;84.89;98831.73;208676;1318;140369;-74
2022/01/28 01:00:33;;;;;;;3.50;2.60;;;;;;;3.42;84.98;98848.84;208146;1317;140926;-75
2022/01/28 01:05:38;;;;;;;3.90;2.70;;;;;;;3.34;84.41;98857.73;207134;1316;140447;-74
2022/01/28 01:10:42;;;;;;;5.20;3.30;;;;;;;3.23;84.69;98852.82;207886;1316;138834;-71
2022/01/28 01:15:48;;;;;;;3.30;2.50;;;;;;;3.11;84.58;98842.73;207222;1317;139102;-69
2022/01/28 01:26:18;;;;;;;5.70;2.40;;;;;;;2.94;85.23;98832.79;208483;1317;125403;-75
2022/01/28 01:31:21;;;;;;;6.00;1.90;;;;;;;2.96;84.94;98821.52;206883;1316;138937;-71
2022/01/28 01:36:24;;;;;;;3.10;2.20;;;;;;;2.96;85.04;98818.58;207698;1317;140499;-74
2022/01/28 01:42:22;;;;;;;7.00;2.40;;;;;;;2.95;84.96;98814.33;207430;1317;139626;-70
2022/01/28 01:52:34;;;;;;;3.50;1.50;;;;;;;2.97;84.52;98795.04;207326;1320;138430;-73
2022/01/28 01:57:38;;;;;;;6.00;1.80;;;;;;;2.99;84.32;98784.66;208762;1317;139142;-73
2022/01/28 02:02:43;;;;;;;5.70;2.00;;;;;;;2.99;84.44;98779.89;208507;1316;138739;-75
2022/01/28 02:07:48;;;;;;;4.40;2.10;;;;;;;2.98;84.46;98770.65;207810;1317;140556;-74
2022/01/28 02:12:52;;;;;;;5.00;1.40;;;;;;;3.00;84.32;98768.75;208634;1315;140055;-72
2022/01/28 02:17:59;;;;;;;11.00;2.40;;;;;;;2.95;83.96;98767.59;206669;1316;138411;-69
2022/01/28 02:23:04;;;;;;;3.80;1.50;;;;;;;2.96;84.25;98772.64;208135;1318;140617;-67
2022/01/28 02:28:10;;;;;;;5.70;2.50;;;;;;;2.91;84.33;98769.80;208438;1317;138964;-70
2022/01/28 02:33:17;;;;;;;34.00;10.80;;;;;;;2.84;84.06;98776.82;209000;1317;139455;-69
2022/01/28 02:38:22;;;;;;;16.00;6.20;;;;;;;2.76;84.01;98773.73;208811;1317;140464;-69
2022/01/28 02:43:41;;;;;;;9.30;3.10;;;;;;;2.67;84.46;98776.56;208614;1318;140451;-68
2022/01/28 02:49:08;;;;;;;4.00;2.40;;;;;;;2.65;84.36;98777.30;208882;1318;139362;-71
2022/01/28 02:54:14;;;;;;;3.50;2.40;;;;;;;2.63;84.52;98771.92;208958;1316;140603;-71
2022/01/28 02:59:18;;;;;;;4.00;1.70;;;;;;;2.60;84.67;98769.78;206813;1316;139622;-66
2022/01/28 03:10:02;;;;;;;4.70;1.80;;;;;;;2.53;85.14;98767.52;208333;1317;140289;-66
2022/01/28 03:15:07;;;;;;;2.90;1.60;;;;;;;2.54;84.96;98774.69;207690;1317;140460;-73
2022/01/28 03:20:35;;;;;;;7.30;2.50;;;;;;;2.50;84.85;98768.66;208071;1316;139856;-70
2022/01/28 03:25:43;;;;;;;5.80;2.70;;;;;;;2.47;85.05;98771.77;208003;1316;139170;-69
2022/01/28 03:30:46;;;;;;;4.30;2.10;;;;;;;2.44;85.22;98776.23;207068;1317;139284;-70
2022/01/28 03:36:06;;;;;;;;;;;;;;;;;;;;;
2022/01/28 03:41:16;;;;;;;2.30;2.10;;;;;;;2.38;85.54;98777.61;207922;1317;139994;-68
2022/01/28 03:46:21;;;;;;;7.40;2.30;;;;;;;2.36;85.69;98769.31;208723;1317;138826;-69
2022/01/28 03:51:24;;;;;;;6.90;1.80;;;;;;;2.35;85.53;98773.16;208773;1315;140260;-68
2022/01/28 03:56:27;;;;;;;3.60;2.00;;;;;;;2.38;85.80;98785.94;207424;1317;141212;-70
2022/01/28 04:01:34;;;;;;;6.20;1.70;;;;;;;2.39;85.79;98791.20;207915;1315;140089;-72
2022/01/28 04:12:01;;;;;;;2.00;1.80;;;;;;;2.49;86.23;98794.85;206965;1317;140098;-72
2022/01/28 04:17:21;;;;;;;2.80;1.30;;;;;;;2.53;85.92;98805.69;207888;1315;142285;-72
2022/01/28 04:22:24;;;;;;;10.40;3.60;;;;;;;2.55;85.88;98802.17;208689;1317;140826;-78
2022/01/28 04:27:30;;;;;;;8.00;1.50;;;;;;;2.54;86.13;98806.38;207453;1319;140558;-73
2022/01/28 04:32:34;;;;;;;3.80;2.30;;;;;;;2.55;85.94;98820.41;207500;1315;139957;-69
2022/01/28 04:43:23;;;;;;;4.70;1.30;;;;;;;2.65;85.88;98816.85;208695;1313;142016;-76
2022/01/28 04:48:35;;;;;;;7.30;1.60;;;;;;;2.69;85.80;98818.20;209187;1315;140938;-74
2022/01/28 05:10:22;;;;;;;2.30;1.00;;;;;;;2.80;85.26;98835.21;205640;1324;140572;-71
2022/01/28 05:31:28;;;;;;;4.30;1.70;;;;;;;2.78;85.66;98873.48;207500;1315;141152;-73
2022/01/28 05:36:36;;;;;;;8.70;1.60;;;;;;;2.72;85.74;98865.66;206954;1315;140179;-75
2022/01/28 05:41:40;;;;;;;8.60;1.80;;;;;;;2.71;85.80;98869.19;207819;1317;140103;-73
2022/01/28 05:46:44;;;;;;;6.70;1.70;;;;;;;2.72;85.68;98874.29;208202;1316;140709;-72
2022/01/28 05:51:50;;;;;;;8.70;1.90;;;;;;;2.77;85.50;98878.02;207309;1315;139833;-70
2022/01/28 05:56:55;;;;;;;15.40;2.60;;;;;;;2.77;85.82;98883.64;207305;1316;139495;-71
2022/01/28 06:02:20;;;;;;;6.50;2.30;;;;;;;2.78;85.60;98892.83;207457;1315;140602;-74
2022/01/28 06:07:24;;;;;;;10.00;2.60;;;;;;;2.76;85.81;98902.68;207114;1316;139612;-77
2022/01/28 06:12:27;;;;;;;6.80;1.60;;;;;;;2.70;85.92;98923.11;207463;1316;139997;-74
2022/01/28 06:17:33;;;;;;;3.10;1.90;;;;;;;2.69;85.64;98929.27;208678;1316;139354;-74
2022/01/28 06:22:43;;;;;;;3.60;1.40;;;;;;;2.63;85.52;98940.47;207527;1316;138959;-75
2022/01/28 06:27:47;;;;;;;7.20;1.70;;;;;;;2.54;85.69;98946.41;207853;1316;139905;-75
2022/01/28 06:32:54;;;;;;;9.10;2.90;;;;;;;2.50;85.79;98951.42;207903;1314;139879;-73
2022/01/28 06:38:05;;;;;;;7.40;1.90;;;;;;;2.48;86.16;98961.38;207406;1316;139131;-70
2022/01/28 06:43:15;;;;;;;6.80;2.10;;;;;;;2.49;85.69;98966.80;208988;1317;139697;-71
2022/01/28 06:48:19;;;;;;;7.30;3.00;;;;;;;2.53;85.79;98964.05;208008;1316;139097;-72
2022/01/28 06:53:21;;;;;;;9.00;2.60;;;;;;;2.53;85.83;98978.59;208702;1316;139230;-68
2022/01/28 06:58:26;;;;;;;5.20;1.80;;;;;;;2.55;85.82;98998.10;208861;1318;140951;-70
2022/01/28 07:03:42;;;;;;;10.10;2.30;;;;;;;2.56;85.56;99006.39;208795;1315;139713;-71
2022/01/28 07:08:45;;;;;;;3.50;1.60;;;;;;;2.54;85.82;99025.14;207615;1318;139758;-70
2022/01/28 07:13:47;;;;;;;8.40;2.40;;;;;;;2.51;85.52;99034.31;209029;1318;139067;-67
2022/01/28 07:19:08;;;;;;;4.50;2.40;;;;;;;2.49;86.03;99039.77;208215;1316;139355;-68
2022/01/28 07:24:10;;;;;;;8.00;2.00;;;;;;;2.49;86.01;99056.94;208589;1315;141158;-67
2022/01/28 07:29:19;;;;;;;3.90;1.70;;;;;;;2.50;86.07;99069.12;208572;1316;140837;-67
2022/01/28 07:34:22;;;;;;;7.40;2.70;;;;;;;2.49;86.29;99079.56;207107;1316;139963;-68
2022/01/28 07:39:24;;;;;;;7.30;3.30;;;;;;;2.48;86.23;99089.02;206949;1316;140230;-66
2022/01/28 07:44:27;;;;;;;11.10;4.20;;;;;;;2.45;86.39;99107.10;207973;1316;140804;-74
2022/01/28 07:49:29;;;;;;;5.40;2.30;;;;;;;2.45;86.14;99119.49;207982;1315;152223;-73
2022/01/28 07:54:32;;;;;;;9.80;1.80;;;;;;;2.45;86.22;99134.48;207202;1317;140001;-70
2022/01/28 07:59:34;;;;;;;3.50;1.40;;;;;;;2.42;86.39;99145.92;206972;1316;220817;-70
2022/01/28 08:04:38;;;;;;;3.90;1.70;;;;;;;2.40;86.30;99160.58;207832;1314;140354;-69
2022/01/28 08:09:41;;;;;;;7.20;2.60;;;;;;;2.38;86.58;99171.60;206514;1317;211329;-69
2022/01/28 08:14:44;;;;;;;5.90;1.80;;;;;;;2.38;86.52;99180.27;207651;1316;139190;-71
2022/01/28 08:19:46;;;;;;;6.20;1.80;;;;;;;2.39;86.34;99188.98;206664;1318;139471;-70
2022/01/28 08:24:51;;;;;;;12.00;3.30;;;;;;;2.38;86.75;99197.70;206937;1316;139924;-70
2022/01/28 08:30:03;;;;;;;6.00;2.60;;;;;;;2.44;86.87;99206.22;207571;1317;709508;-70
2022/01/28 08:35:11;;;;;;;8.20;2.70;;;;;;;2.50;86.91;99211.54;206738;1317;142193;-67
2022/01/28 08:40:13;;;;;;;8.20;2.50;;;;;;;2.53;86.75;99215.65;207227;1316;138978;-68
2022/01/28 08:45:19;;;;;;;7.30;3.10;;;;;;;2.56;86.95;99222.11;208136;1316;139830;-72
2022/01/28 08:50:22;;;;;;;4.50;2.00;;;;;;;2.57;86.94;99245.98;207445;1316;140037;-72
2022/01/28 08:55:25;;;;;;;8.00;3.40;;;;;;;2.60;86.74;99257.75;208313;1318;140346;-70
2022/01/28 09:00:28;;;;;;;8.50;2.10;;;;;;;2.66;86.95;99274.42;209113;1316;140139;-73
2022/01/28 09:05:30;;;;;;;3.30;2.10;;;;;;;2.69;86.86;99290.44;208669;1316;140194;-73
2022/01/28 09:10:34;;;;;;;10.60;2.60;;;;;;;2.75;86.64;99303.89;208951;1316;139992;-72
2022/01/28 09:15:41;;;;;;;6.10;2.20;;;;;;;2.82;86.83;99316.55;209314;1317;139887;-73
2022/01/28 09:20:44;;;;;;;7.30;4.00;;;;;;;2.84;86.59;99335.77;209628;1315;140920;-69
2022/01/28 09:25:47;;;;;;;9.40;6.30;;;;;;;2.91;86.52;99351.32;209426;1316;153524;-70
2022/01/28 09:30:50;;;;;;;8.40;2.80;;;;;;;2.95;86.44;99361.79;208943;1317;139904;-69
2022/01/28 09:35:54;;;;;;;7.80;2.30;;;;;;;2.98;86.33;99376.27;207139;1315;141249;-68
2022/01/28 09:40:59;;;;;;;3.50;2.30;;;;;;;3.00;86.40;99395.41;207379;1317;141645;-69
2022/01/28 09:46:09;;;;;;;9.60;2.60;;;;;;;3.01;86.19;99401.04;208215;1317;139719;-68
2022/01/28 09:51:18;;;;;;;7.60;2.40;;;;;;;3.03;86.18;99407.95;207395;1316;141481;-67
2022/01/28 09:56:21;;;;;;;5.10;2.10;;;;;;;3.04;86.15;99420.92;208293;1316;141111;-68
2022/01/28 10:01:31;;;;;;;8.10;2.80;;;;;;;3.01;86.14;99431.91;207251;1315;139501;-67
2022/01/28 10:06:36;;;;;;;5.50;3.00;;;;;;;3.02;86.19;99441.92;206874;1315;139530;-70
2022/01/28 10:11:45;;;;;;;4.00;2.80;;;;;;;3.05;86.31;99446.35;208153;1316;140593;-67
2022/01/28 10:17:11;;;;;;;4.30;2.30;;;;;;;3.02;86.07;99455.83;207796;1318;140686;-65
2022/01/28 10:22:19;;;;;;;4.00;2.50;;;;;;;3.04;86.24;99470.70;207265;1316;138946;-64
2022/01/28 10:27:56;;;;;;;3.20;2.50;;;;;;;3.12;85.84;99480.95;207931;1315;140618;-66
2022/01/28 10:33:21;;;;;;;5.30;2.10;;;;;;;3.09;85.86;99487.36;208187;1316;139653;-66
2022/01/28 10:38:31;;;;;;;4.50;1.40;;;;;;;3.14;85.79;99497.48;207455;1316;140049;-66
2022/01/28 10:43:45;;;;;;;1.50;1.20;;;;;;;3.21;85.77;99506.09;207917;1316;140022;-66
2022/01/28 10:48:56;;;;;;;3.30;2.10;;;;;;;3.31;85.70;99515.93;208216;1319;139567;-66
2022/01/28 10:54:11;;;;;;;2.30;1.90;;;;;;;3.33;85.52;99519.80;206969;1316;139518;-65
2022/01/28 10:59:17;;;;;;;2.10;1.90;;;;;;;3.29;85.18;99533.52;206713;1315;139053;-68
2022/01/28 11:04:22;;;;;;;2.40;1.20;;;;;;;3.32;85.16;99545.98;208235;1313;139924;-66
2022/01/28 11:09:26;;;;;;;1.20;1.00;;;;;;;3.48;84.79;99553.84;207926;1317;139376;-68
2022/01/28 11:14:29;;;;;;;1.30;0.70;;;;;;;3.56;84.60;99565.90;208755;1317;150644;-68
2022/01/28 11:19:38;;;;;;;2.60;1.40;;;;;;;3.56;84.16;99572.08;209064;1317;139680;-67
2022/01/28 11:24:44;;;;;;;3.20;1.40;;;;;;;3.57;84.21;99584.54;208682;1318;140361;-68
2022/01/28 11:29:47;;;;;;;1.20;1.00;;;;;;;3.63;83.83;99594.19;208598;1318;140375;-68
2022/01/28 11:35:10;;;;;;;1.90;1.60;;;;;;;3.57;83.84;99594.98;209176;1314;140691;-65
2022/01/28 11:40:16;;;;;;;2.40;1.40;;;;;;;3.53;83.95;99600.06;208072;1314;140268;-67
2022/01/28 11:45:24;;;;;;;1.30;1.30;;;;;;;3.55;83.80;99608.19;208528;1315;140529;-68
2022/01/28 11:50:39;;;;;;;1.80;1.50;;;;;;;3.57;83.47;99624.67;207549;1316;230460;-65
2022/01/28 11:55:47;;;;;;;5.60;2.10;;;;;;;3.92;84.05;99626.17;206720;1316;230064;-65
2022/01/28 12:00:53;;;;;;;1.30;1.20;;;;;;;4.04;83.32;99623.40;207631;1317;140847;-65
2022/01/28 12:06:05;;;;;;;0.80;0.80;;;;;;;3.89;83.12;99650.11;207255;1316;150108;-65
2022/01/28 12:11:10;;;;;;;1.50;1.40;;;;;;;3.65;83.06;99662.35;206791;1316;139240;-67
2022/01/28 12:16:26;;;;;;;3.20;2.60;;;;;;;3.51;83.20;99661.80;207798;1317;139748;-68
2022/01/28 12:21:34;;;;;;;2.70;1.60;;;;;;;3.49;83.73;99664.83;207149;1316;138937;-66
2022/01/28 12:27:08;;;;;;;3.90;2.30;;;;;;;3.63;83.97;99665.95;206918;1317;139666;-69
2022/01/28 12:32:11;;;;;;;3.40;3.10;;;;;;;3.81;83.91;99674.44;206654;1316;139990;-70
2022/01/28 12:37:21;;;;;;;1.80;1.70;;;;;;;3.75;83.67;99686.95;206661;1317;140271;-70
2022/01/28 12:42:26;;;;;;;2.30;1.30;;;;;;;3.62;83.52;99698.20;207180;1318;140457;-69
2022/01/28 12:47:36;;;;;;;2.90;2.60;;;;;;;3.45;83.44;99714.33;207652;1317;141278;-68
2022/01/28 12:53:00;;;;;;;1.80;1.30;;;;;;;3.31;83.37;99722.07;207606;1315;142948;-71
2022/01/28 12:58:17;;;;;;;;;;;;;;;;;;;;;
2022/01/28 13:03:27;;;;;;;;;;;;;;;3.15;83.48;99744.30;208682;1316;140495;-74
2022/01/28 13:08:33;;;;;;;1.00;0.90;;;;;;;3.11;83.85;99751.63;208695;1315;126461;-68
2022/01/28 13:14:06;;;;;;;1.80;1.30;;;;;;;3.25;83.72;99751.07;208332;1317;141697;-71
2022/01/28 13:19:12;;;;;;;3.70;1.80;;;;;;;3.38;83.96;99751.67;209149;1316;141489;-69
2022/01/28 13:24:31;;;;;;;;;;;;;;;;;;;;;
2022/01/28 13:29:45;;;;;;;1.90;1.40;;;;;;;3.48;83.15;99761.39;208291;1315;139692;-69
2022/01/28 13:34:59;;;;;;;3.30;1.60;;;;;;;3.57;83.14;99778.27;208549;1316;139722;-69
2022/01/28 13:40:06;;;;;;;6.60;3.20;;;;;;;3.82;83.04;99785.02;209146;1317;139970;-68
2022/01/28 13:45:09;;;;;;;3.30;1.50;;;;;;;4.05;82.82;99791.17;209035;1316;141222;-72
2022/01/28 13:50:28;;;;;;;1.80;1.30;;;;;;;4.20;82.75;99805.73;208644;1316;139510;-74
2022/01/28 13:55:41;;;;;;;4.10;1.50;;;;;;;4.20;82.12;99812.11;207001;1316;140943;-68
2022/01/28 14:00:48;;;;;;;2.20;1.60;;;;;;;4.17;82.01;99820.70;207577;1317;158198;-72
2022/01/28 14:05:55;;;;;;;4.50;2.20;;;;;;;4.13;81.82;99837.02;208518;1318;139142;-71
2022/01/28 14:11:34;;;;;;;3.90;2.30;;;;;;;4.10;81.68;99849.90;208138;1316;139481;-70
2022/01/28 14:16:41;;;;;;;2.70;1.50;;;;;;;4.15;81.72;99861.91;208247;1317;139666;-67
2022/01/28 14:21:46;;;;;;;2.00;1.40;;;;;;;4.23;81.29;99874.70;207932;1316;141384;-71
2022/01/28 14:27:05;;;;;;;7.10;2.50;;;;;;;4.12;81.44;99891.44;207848;1315;141822;-70
2022/01/28 14:32:21;;;;;;;2.40;1.30;;;;;;;3.98;81.20;99905.51;207232;1318;139977;-69
2022/01/28 14:37:28;;;;;;;2.90;1.30;;;;;;;3.89;81.19;99920.55;207106;1315;138846;-68
2022/01/28 14:42:35;;;;;;;0.80;0.80;;;;;;;3.74;81.09;99927.48;206697;1317;140035;-69
2022/01/28 14:47:42;;;;;;;3.50;1.30;;;;;;;3.62;81.25;99936.15;206774;1316;139531;-67
2022/01/28 14:52:48;;;;;;;3.30;2.90;;;;;;;3.51;81.39;99944.61;207416;1316;140103;-69
2022/01/28 14:57:53;;;;;;;3.60;1.20;;;;;;;3.38;81.29;99954.79;207694;1321;138879;-70
2022/01/28 15:02:59;;;;;;;3.70;1.50;;;;;;;3.29;81.43;99965.55;207668;1316;139034;-74
2022/01/28 15:08:17;;;;;;;2.00;1.50;;;;;;;3.19;81.80;99979.64;207346;1316;141295;-72
2022/01/28 15:13:26;;;;;;;1.80;1.20;;;;;;;3.05;81.57;100000.06;208263;1316;139446;-68
2022/01/28 15:18:30;;;;;;;2.30;1.30;;;;;;;2.84;81.26;100004.93;206928;1317;141259;-69
2022/01/28 15:23:34;;;;;;;1.80;1.70;;;;;;;2.63;81.50;100007.73;208080;1316;141556;-71
2022/01/28 15:28:48;;;;;;;2.50;1.60;;;;;;;2.41;81.82;100023.66;208197;1317;149871;-69
2022/01/28 15:39:15;;;;;;;2.70;2.50;;;;;;;2.24;82.49;100043.98;207684;1317;140464;-75
2022/01/28 15:44:18;;;;;;;2.90;2.70;;;;;;;2.16;82.36;100045.21;209203;1318;140347;-78
2022/01/28 15:49:22;;;;;;;3.70;2.50;;;;;;;2.04;82.17;100054.36;209212;1317;142078;-75
2022/01/28 16:00:19;;;;;;;2.80;1.20;;;;;;;1.98;82.53;100087.44;208255;1351;685760;-76
2022/01/28 16:05:43;;;;;;;2.20;1.40;;;;;;;1.90;82.47;100094.23;205478;1331;140430;-69
2022/01/28 16:11:34;;;;;;;2.70;1.30;;;;;;;1.85;82.03;100113.54;205035;1328;467623;-75
2022/01/28 16:21:13;;;;;;;1.80;0.90;;;;;;;1.72;82.01;100149.40;206272;1328;139703;-71
2022/01/28 16:26:26;;;;;;;1.90;1.10;;;;;;;1.69;82.10;100153.86;208029;1319;138819;-76
2022/01/28 16:31:38;;;;;;;6.70;1.60;;;;;;;1.64;82.25;100166.13;207312;1319;139149;-73
2022/01/28 16:36:47;;;;;;;1.30;0.90;;;;;;;1.62;82.13;100170.09;207769;1316;138358;-74
2022/01/28 16:42:01;;;;;;;6.50;2.70;;;;;;;1.61;82.19;100181.56;207103;1319;138988;-73
2022/01/28 16:47:05;;;;;;;1.60;1.50;;;;;;;1.59;82.06;100196.44;207179;1319;138976;-76
2022/01/28 16:52:12;;;;;;;4.90;1.30;;;;;;;1.57;82.23;100199.83;208033;1319;138520;-73
2022/01/28 16:57:16;;;;;;;2.10;1.00;;;;;;;1.52;81.92;100201.52;206967;1319;139576;-74
2022/01/28 17:02:23;;;;;;;4.10;1.20;;;;;;;1.48;82.18;100207.14;207608;1319;140828;-77
2022/01/28 17:07:28;;;;;;;2.60;1.20;;;;;;;1.47;81.76;100221.48;207227;1320;138852;-75
2022/01/28 17:17:40;;;;;;;3.20;2.00;;;;;;;1.32;82.21;100248.23;207107;1319;138703;-72
2022/01/28 17:22:45;;;;;;;3.00;2.10;;;;;;;1.27;81.98;100261.28;207066;1319;141184;-66
2022/01/28 17:27:50;;;;;;;4.30;3.00;;;;;;;1.16;82.06;100267.85;207041;1319;139685;-71
2022/01/28 17:32:54;;;;;;;5.00;2.10;;;;;;;1.05;81.81;100269.58;208333;1319;139813;-76
2022/01/28 17:38:00;;;;;;;3.10;2.40;;;;;;;0.96;82.04;100275.71;207261;1319;141241;-71
2022/01/28 17:43:04;;;;;;;5.00;1.60;;;;;;;0.88;81.46;100281.95;208296;1319;139506;-72
2022/01/28 17:48:10;;;;;;;1.90;1.70;;;;;;;0.79;81.55;100300.60;208406;1319;139937;-71
2022/01/28 17:53:16;;;;;;;2.90;1.60;;;;;;;0.77;81.60;100304.63;208383;1320;140801;-73
2022/01/28 17:58:28;;;;;;;3.30;1.60;;;;;;;0.81;81.20;100316.72;208212;1320;140550;-69
2022/01/28 18:03:32;;;;;;;2.20;1.30;;;;;;;0.77;81.10;100324.27;208039;1319;140211;-73
2022/01/28 18:08:36;;;;;;;7.00;2.40;;;;;;;0.75;80.90;100325.34;208595;1319;139279;-73
2022/01/28 18:13:39;;;;;;;2.30;1.30;;;;;;;0.80;81.01;100327.84;207825;1319;139693;-74
2022/01/28 18:18:55;;;;;;;6.20;1.90;;;;;;;0.83;81.06;100337.80;208694;1318;158697;-70
2022/01/28 18:23:58;;;;;;;6.20;2.30;;;;;;;0.88;80.85;100346.77;208979;1319;139633;-72
2022/01/28 18:29:01;;;;;;;7.70;1.70;;;;;;;0.94;81.00;100344.83;207388;1319;161670;-72
2022/01/28 18:34:07;;;;;;;10.40;2.30;;;;;;;0.98;80.81;100344.54;207621;1319;139417;-70
2022/01/28 18:39:10;;;;;;;4.60;1.70;;;;;;;0.99;80.84;100351.80;208372;1319;138859;-71
2022/01/28 18:44:17;;;;;;;4.50;1.80;;;;;;;1.03;80.68;100354.80;207376;1319;139016;-71
2022/01/28 18:49:22;;;;;;;3.10;2.80;;;;;;;1.00;80.68;100363.67;207166;1320;139015;-72
2022/01/28 18:54:25;;;;;;;4.50;2.00;;;;;;;0.93;80.36;100374.34;207203;1319;139120;-72
2022/01/28 18:59:28;;;;;;;7.60;2.50;;;;;;;0.88;80.26;100377.52;207642;1316;140452;-71
2022/01/28 19:04:31;;;;;;;5.30;2.30;;;;;;;0.88;80.35;100395.20;207575;1315;140549;-72
2022/01/28 19:09:34;;;;;;;6.90;1.80;;;;;;;0.89;80.39;100411.02;207223;1315;140592;-71
2022/01/28 19:14:36;;;;;;;6.80;2.10;;;;;;;0.87;80.71;100408.95;208501;1315;140324;-73
2022/01/28 19:19:43;;;;;;;7.30;2.10;;;;;;;0.89;80.30;100412.43;207924;1315;139971;-71
2022/01/28 19:24:46;;;;;;;3.50;1.90;;;;;;;0.89;80.32;100423.02;207356;1316;139490;-69
2022/01/28 19:29:54;;;;;;;3.80;1.60;;;;;;;0.89;80.17;100440.29;208786;1316;138750;-69
2022/01/28 19:34:56;;;;;;;5.10;2.10;;;;;;;0.91;80.23;100443.90;208658;1315;140937;-68
2022/01/28 19:39:59;;;;;;;3.70;2.00;;;;;;;0.94;79.95;100449.71;208555;1316;140636;-72
2022/01/28 19:45:02;;;;;;;4.60;1.70;;;;;;;0.92;80.05;100450.42;208234;1316;138898;-72
2022/01/28 19:50:07;;;;;;;12.10;3.60;;;;;;;0.92;79.65;100459.02;208490;1315;142180;-71
2022/01/28 19:55:30;;;;;;;7.30;1.70;;;;;;;0.93;79.56;100460.95;207606;1316;142027;-72
2022/01/28 20:00:32;;;;;;;5.70;2.00;;;;;;;0.91;79.26;100468.84;209329;1315;139923;-72
2022/01/28 20:05:36;;;;;;;5.20;2.80;;;;;;;0.90;79.75;100480.52;208290;1316;141641;-71
2022/01/28 20:10:42;;;;;;;5.40;2.40;;;;;;;0.92;79.44;100489.20;209648;1315;139464;-73
2022/01/28 20:15:44;;;;;;;3.80;2.00;;;;;;;0.94;79.21;100495.20;209136;1315;141752;-70
2022/01/28 20:20:51;;;;;;;7.80;2.30;;;;;;;0.95;79.30;100496.41;209450;1316;139717;-72
2022/01/28 20:25:54;;;;;;;4.40;2.00;;;;;;;0.98;79.20;100508.45;207738;1315;139542;-72
2022/01/28 20:31:11;;;;;;;4.50;1.60;;;;;;;0.99;78.70;100517.24;207451;1315;141107;-72
2022/01/28 20:36:17;;;;;;;6.80;2.10;;;;;;;0.95;78.68;100530.73;208378;1315;138972;-73
2022/01/28 20:41:19;;;;;;;10.10;2.10;;;;;;;0.93;78.40;100538.00;208540;1315;140933;-72
2022/01/28 20:46:27;;;;;;;6.30;2.40;;;;;;;0.89;78.15;100540.16;207353;1316;229928;-68
2022/01/28 20:51:33;;;;;;;4.00;1.30;;;;;;;0.80;78.13;100546.42;207966;1315;139058;-72
2022/01/28 20:56:36;;;;;;;5.50;1.40;;;;;;;0.77;78.28;100563.23;207457;1315;139093;-73
2022/01/28 21:01:38;;;;;;;4.40;1.90;;;;;;;0.78;78.29;100577.46;208014;1315;139207;-72
2022/01/28 21:06:44;;;;;;;4.20;2.50;;;;;;;0.77;78.21;100588.05;207554;1315;141822;-71
2022/01/28 21:11:50;;;;;;;7.50;2.70;;;;;;;0.77;78.13;100589.69;207487;1315;139535;-72
2022/01/28 21:16:54;;;;;;;2.80;2.10;;;;;;;0.77;78.46;100595.73;207594;1316;140028;-73
2022/01/28 21:21:58;;;;;;;5.70;2.50;;;;;;;0.79;78.03;100599.09;207514;1316;141734;-73
2022/01/28 21:27:02;;;;;;;7.10;2.00;;;;;;;0.76;77.99;100607.73;207853;1315;164438;-73
2022/01/28 21:32:05;;;;;;;7.20;4.20;;;;;;;0.73;78.27;100617.47;207170;1315;140066;-73
2022/01/28 21:37:10;;;;;;;3.70;2.20;;;;;;;0.67;78.18;100631.70;208116;1315;141349;-73
2022/01/28 21:42:17;;;;;;;6.70;2.40;;;;;;;0.62;78.11;100633.13;208328;1317;139851;-71
2022/01/28 21:47:20;;;;;;;6.40;2.70;;;;;;;0.58;77.94;100632.09;207719;1317;204633;-71
2022/01/28 21:52:27;;;;;;;1.90;1.70;;;;;;;0.49;78.04;100627.70;209342;1315;139290;-69
2022/01/28 21:57:34;;;;;;;4.00;2.10;;;;;;;0.40;78.04;100629.45;209272;1316;139384;-71
2022/01/28 22:02:38;;;;;;;3.10;1.60;;;;;;;0.37;77.61;100638.11;209009;1316;140271;-71
2022/01/28 22:07:50;;;;;;;4.40;1.50;;;;;;;0.34;77.96;100638.08;208867;1316;139695;-72
2022/01/28 22:12:53;;;;;;;3.30;2.70;;;;;;;0.34;78.00;100640.50;209338;1316;140853;-72
2022/01/28 22:17:57;;;;;;;5.40;2.30;;;;;;;0.32;78.11;100635.64;207770;1316;140727;-71
2022/01/28 22:23:00;;;;;;;3.20;2.00;;;;;;;0.27;78.12;100632.67;208338;1315;140230;-72
2022/01/28 22:28:04;;;;;;;4.60;2.10;;;;;;;0.21;77.69;100636.73;209425;1315;141968;-69
2022/01/28 22:33:09;;;;;;;4.50;1.90;;;;;;;0.16;78.07;100642.76;208292;1316;141103;-72
2022/01/28 22:38:13;;;;;;;8.60;3.60;;;;;;;0.13;78.31;100643.58;208522;1316;140887;-72
2022/01/28 22:43:17;;;;;;;7.20;5.50;;;;;;;0.07;78.07;100647.45;207625;1316;141087;-71
2022/01/28 22:48:21;;;;;;;10.90;3.40;;;;;;;-0.04;78.18;100651.03;207243;1316;141037;-72
2022/01/28 22:53:24;;;;;;;12.90;4.50;;;;;;;-0.11;78.12;100656.84;208181;1315;142666;-71
2022/01/28 22:58:34;;;;;;;14.90;7.40;;;;;;;-0.16;78.28;100659.25;207933;1315;139848;-72
2022/01/28 23:03:38;;;;;;;7.20;4.00;;;;;;;-0.22;78.23;100653.04;208152;1315;140099;-71
2022/01/28 23:08:41;;;;;;;10.10;3.40;;;;;;;-0.30;78.18;100653.60;207212;1316;140116;-71
2022/01/28 23:13:45;;;;;;;5.00;2.20;;;;;;;-0.33;78.08;100648.84;207789;1316;141876;-72
2022/01/28 23:18:50;;;;;;;9.60;4.30;;;;;;;-0.38;78.47;100641.59;207689;1315;141172;-72
2022/01/28 23:23:52;;;;;;;11.60;4.20;;;;;;;-0.43;78.55;100641.35;207190;1315;140849;-66
2022/01/28 23:28:56;;;;;;;11.70;4.10;;;;;;;-0.51;78.61;100641.59;207894;1315;141540;-72
2022/01/28 23:34:00;;;;;;;8.90;3.70;;;;;;;-0.57;78.43;100650.34;207595;1315;140233;-71
2022/01/28 23:39:04;;;;;;;12.60;4.90;;;;;;;-0.63;78.58;100643.95;208244;1316;140283;-67
2022/01/28 23:44:07;;;;;;;14.00;3.90;;;;;;;-0.64;78.49;100651.39;208234;1316;141080;-71
2022/01/28 23:49:09;;;;;;;7.60;4.20;;;;;;;-0.68;78.69;100649.79;208165;1316;140408;-70
2022/01/28 23:54:12;;;;;;;10.90;4.70;;;;;;;-0.71;78.86;100653.20;208536;1316;138987;-71
2022/01/28 23:59:15;;;;;;;13.90;5.30;;;;;;;-0.74;78.98;100653.65;208918;1316;140089;-71
